Appleton, MN

11:02 PM CST on February 21, 2017 (GMT -0600)
Appleton Municipal

Weather History for KAQP - April, 2014

Change the Weather History Date:

Wednesday, April 16, 2014

  Actual Average Record
Temperature  
Mean Temperature 32 °F -  
Max Temperature 35 °F 53 °F 80 °F (2002)
Min Temperature 28 °F 31 °F 21 °F (1997)
Degree Days  
Heating Degree Days 32    
Moisture  
Dew Point 24 °F    
Average Humidity 74    
Maximum Humidity 93    
Minimum Humidity 41    
Precipitation  
Precipitation 0.09 in - - ()
Sea Level Pressure  
Sea Level Pressure 29.92 in    
Wind  
Wind Speed 20 mph (ENE)    
Max Wind Speed 24 mph    
Max Gust Speed 33 mph    
Visibility 7 miles    
Events Snow    
Averages and records for this station are not official NWS values.
T = Trace of Precipitation, MM = Missing Value Source: NWS Daily Summary

Daily Weather History Graph

Daily Weather History Graph

Search for Another Location

Airport or City:

Trip Planner

Search our weather history database for the weather conditions in past years. The results will help you decide how hot, cold, wet, or windy it might be!

Date:

Astronomy

Apr. 16, 2014 Rise Set
Actual Time 6:37 AM CDT 8:11 PM CDT
Civil Twilight 6:06 AM CDT 8:42 PM CDT
Nautical Twilight 5:28 AM CDT 9:19 PM CDT
Astronomical Twilight 4:48 AM CDT 10:00 PM CDT
Moon 10:00 PM CDT (4/16) 7:22 AM CDT (4/16)
Length of Visible Light 14h 35m
Length of Day
13h 34m
Full, 98% of the Moon is Illuminated
Apr 16
Full
Apr 22
Last Quarter
Apr 29
New
May 6
First Quarter
May 14
Full

Hourly Weather History & Observations

Time (CDT) Temp. Windchill Dew Point Humidity Pressure Visibility Wind Dir Wind Speed Gust Speed Precip Events Conditions
12:14 AM 35.6 °F 25.2 °F 14.0 °F 41% 29.91 in 10.0 mi East 18.4 mph 24.2 mph N/A   Scattered Clouds
12:34 AM 35.6 °F 25.2 °F 14.0 °F 41% 29.91 in 10.0 mi East 18.4 mph - N/A   Clear
12:54 AM 35.6 °F 24.8 °F 15.8 °F 44% 29.89 in 10.0 mi East 19.6 mph 26.5 mph N/A   Clear
1:14 AM 35.6 °F 23.7 °F 15.8 °F 44% 29.87 in 10.0 mi ESE 24.2 mph 28.8 mph N/A   Clear
1:34 AM 35.6 °F 23.7 °F 17.6 °F 48% 29.85 in 10.0 mi ESE 24.2 mph 33.4 mph N/A   Clear
1:54 AM 35.6 °F 24.2 °F 17.6 °F 48% 29.86 in 10.0 mi East 21.9 mph 28.8 mph N/A   Clear
2:14 AM 33.8 °F 22.2 °F 17.6 °F 52% 29.86 in 10.0 mi East 20.7 mph 29.9 mph N/A   Clear
2:34 AM 33.8 °F 21.3 °F 17.6 °F 52% 29.85 in 10.0 mi East 24.2 mph 29.9 mph N/A   Clear
2:54 AM 33.8 °F 21.9 °F 17.6 °F 52% 29.85 in 10.0 mi East 21.9 mph 28.8 mph N/A   Clear
3:15 AM 33.8 °F 22.5 °F 17.6 °F 52% 29.85 in 10.0 mi East 19.6 mph 26.5 mph N/A   Clear
3:34 AM 33.8 °F 22.8 °F 17.6 °F 52% 29.84 in 10.0 mi East 18.4 mph 28.8 mph N/A   Clear
3:54 AM 33.8 °F 22.5 °F 19.4 °F 56% 29.84 in 10.0 mi East 19.6 mph 26.5 mph N/A   Clear
4:13 AM 32.0 °F 21.2 °F 21.2 °F 64% 29.84 in 10.0 mi East 16.1 mph 24.2 mph N/A   Clear
4:34 AM 32.0 °F 19.5 °F 21.2 °F 64% 29.84 in 10.0 mi East 21.9 mph 28.8 mph N/A   Clear
4:53 AM 32.0 °F 19.8 °F 21.2 °F 64% 29.83 in 10.0 mi East 20.7 mph 26.5 mph N/A   Clear
5:13 AM 32.0 °F 20.1 °F 21.2 °F 64% 29.83 in 10.0 mi East 19.6 mph 28.8 mph N/A   Scattered Clouds
5:34 AM 32.0 °F 19.8 °F 23.0 °F 69% 29.82 in 10.0 mi East 20.7 mph 28.8 mph N/A   Clear
5:53 AM 32.0 °F 19.5 °F 23.0 °F 69% 29.82 in 10.0 mi East 21.9 mph 28.8 mph N/A   Scattered Clouds
6:13 AM 32.0 °F 20.1 °F 21.2 °F 64% 29.82 in 10.0 mi East 19.6 mph 27.6 mph N/A   Scattered Clouds
6:34 AM 33.8 °F 21.3 °F 21.2 °F 60% 29.82 in 10.0 mi East 24.2 mph 28.8 mph N/A   Clear
6:53 AM 33.8 °F 22.5 °F 21.2 °F 60% 29.82 in 10.0 mi East 19.6 mph 27.6 mph N/A   Clear
7:14 AM 33.8 °F 22.8 °F 21.2 °F 60% 29.83 in 10.0 mi East 18.4 mph 29.9 mph N/A   Clear
7:33 AM 33.8 °F 23.2 °F 23.0 °F 65% 29.83 in 10.0 mi East 17.3 mph 28.8 mph N/A   Clear
7:54 AM 33.8 °F 22.2 °F 23.0 °F 65% 29.83 in 10.0 mi East 20.7 mph 28.8 mph N/A   Clear
8:13 AM 33.8 °F 21.3 °F 21.2 °F 60% 29.83 in 10.0 mi East 24.2 mph 32.2 mph N/A   Scattered Clouds
8:33 AM 33.8 °F 22.2 °F 21.2 °F 60% 29.83 in 10.0 mi East 20.7 mph 29.9 mph N/A   Scattered Clouds
8:53 AM 33.8 °F 22.2 °F 21.2 °F 60% 29.82 in 10.0 mi East 20.7 mph 31.1 mph N/A   Mostly Cloudy
9:15 AM 33.8 °F 21.9 °F 24.8 °F 70% 29.82 in 4.0 mi East 21.9 mph 29.9 mph N/A Snow Light Snow
9:33 AM 30.2 °F 16.5 °F 26.6 °F 86% 29.83 in 1.5 mi East 24.2 mph 29.9 mph N/A Snow Light Snow
9:53 AM 30.2 °F 17.8 °F 26.6 °F 86% 29.83 in 1.0 mi East 19.6 mph 28.8 mph N/A Snow Light Snow
10:14 AM 30.2 °F 17.8 °F 28.4 °F 93% 29.84 in 0.5 mi East 19.6 mph 24.2 mph N/A Snow Snow
10:34 AM 30.2 °F 18.9 °F 28.4 °F 93% 29.84 in 0.5 mi East 16.1 mph 26.5 mph N/A Snow Snow
10:55 AM 30.2 °F 18.1 °F 28.4 °F 93% 29.84 in 0.5 mi ENE 18.4 mph 23.0 mph N/A Snow Light Snow
11:14 AM 30.2 °F 18.9 °F 28.4 °F 93% 29.85 in 0.8 mi ENE 16.1 mph 24.2 mph N/A Snow Light Snow
11:34 AM 30.2 °F 18.5 °F 28.4 °F 93% 29.85 in 0.2 mi ENE 17.3 mph 23.0 mph N/A Snow Snow
11:54 AM 30.2 °F 18.9 °F 28.4 °F 93% 29.87 in 0.5 mi NE 16.1 mph 20.7 mph N/A Snow Snow
12:13 PM 30.2 °F 17.8 °F 28.4 °F 93% 29.88 in 0.5 mi NE 19.6 mph 23.0 mph N/A Snow Snow
12:34 PM 30.2 °F 17.8 °F 28.4 °F 93% 29.88 in 0.5 mi NE 19.6 mph 26.5 mph N/A Snow Snow
12:55 PM 30.2 °F 17.1 °F 28.4 °F 93% 29.88 in 0.8 mi NE 21.9 mph 27.6 mph N/A Snow Light Snow
1:14 PM 30.2 °F 17.1 °F 28.4 °F 93% 29.88 in 0.8 mi NE 21.9 mph 27.6 mph N/A Snow Light Snow
1:33 PM 30.2 °F 17.8 °F 28.4 °F 93% 29.88 in 1.0 mi NE 19.6 mph 27.6 mph N/A Snow Light Snow
1:54 PM 30.2 °F 17.4 °F 28.4 °F 93% 29.89 in 0.2 mi NE 20.7 mph 27.6 mph N/A Snow Heavy Snow
2:14 PM 30.2 °F 18.1 °F 28.4 °F 93% 29.89 in 0.2 mi NE 18.4 mph 25.3 mph N/A Snow Heavy Snow
2:35 PM 30.2 °F 17.4 °F 28.4 °F 93% 29.90 in 0.2 mi NE 20.7 mph 25.3 mph N/A Snow Heavy Snow
2:54 PM 30.2 °F 18.1 °F 28.4 °F 93% 29.92 in 0.2 mi NE 18.4 mph 26.5 mph N/A Snow Snow
3:14 PM 30.2 °F 17.8 °F 28.4 °F 93% 29.93 in 0.5 mi NE 19.6 mph 27.6 mph N/A Snow Light Snow
3:33 PM 30.2 °F 18.5 °F 28.4 °F 93% 29.94 in 0.8 mi NE 17.3 mph 26.5 mph 0.02 in Snow Light Snow
3:54 PM 32.0 °F 19.2 °F 28.4 °F 87% 29.94 in 1.0 mi NE 23.0 mph 27.6 mph 0.04 in Snow Light Snow
4:14 PM 32.0 °F 19.8 °F 28.4 °F 87% 29.95 in 1.0 mi NE 20.7 mph 26.5 mph 0.01 in Snow Light Snow
4:34 PM 33.8 °F 21.9 °F 28.4 °F 81% 29.96 in 1.0 mi NE 21.9 mph 26.5 mph 0.02 in Snow Light Snow
4:54 PM 33.8 °F 22.5 °F 28.4 °F 81% 29.97 in 1.8 mi NE 19.6 mph 25.3 mph 0.03 in Snow Light Snow
5:14 PM 33.8 °F 22.2 °F 28.4 °F 81% 29.98 in 4.0 mi NNE 20.7 mph 26.5 mph 0.01 in   Haze
5:35 PM 33.8 °F 21.9 °F 28.4 °F 81% 29.99 in 5.0 mi NNE 21.9 mph 27.6 mph 0.01 in   Haze
5:53 PM 33.8 °F 21.6 °F 26.6 °F 75% 30.00 in 10.0 mi NNE 23.0 mph 26.5 mph 0.02 in   Overcast
6:13 PM 32.0 °F 18.9 °F 26.6 °F 80% 30.01 in 10.0 mi NNE 24.2 mph 28.8 mph N/A   Overcast
6:55 PM 32.0 °F 18.9 °F 26.6 °F 80% 30.03 in 10.0 mi NNE 24.2 mph - N/A   Overcast
7:14 PM 32.0 °F 19.2 °F 26.6 °F 80% 30.04 in 7.0 mi NNE 23.0 mph - N/A   Overcast
7:35 PM 32.0 °F 19.8 °F 26.6 °F 80% 30.06 in 7.0 mi NNE 20.7 mph 28.8 mph N/A   Overcast
7:54 PM 30.2 °F 17.4 °F 26.6 °F 86% 30.07 in 10.0 mi NNE 20.7 mph 26.5 mph N/A   Overcast
8:14 PM 30.2 °F 17.4 °F 26.6 °F 86% 30.07 in 10.0 mi NNE 20.7 mph - N/A   Overcast
8:33 PM 30.2 °F 17.1 °F 24.8 °F 80% 30.09 in 10.0 mi NNE 21.9 mph 26.5 mph N/A   Overcast
8:53 PM 30.2 °F 17.1 °F 24.8 °F 80% 30.09 in 10.0 mi NNE 21.9 mph 25.3 mph N/A   Overcast
9:15 PM 30.2 °F 17.8 °F 24.8 °F 80% 30.10 in 10.0 mi North 19.6 mph 25.3 mph N/A   Overcast
9:35 PM 30.2 °F 17.8 °F 24.8 °F 80% 30.12 in 10.0 mi North 19.6 mph - N/A   Overcast
9:53 PM 30.2 °F 17.1 °F 24.8 °F 80% 30.12 in 10.0 mi NNE 21.9 mph - N/A   Overcast
10:14 PM 30.2 °F 18.9 °F 24.8 °F 80% 30.12 in 10.0 mi North 16.1 mph - N/A   Overcast
10:34 PM 30.2 °F 17.4 °F 24.8 °F 80% 30.13 in 10.0 mi North 20.7 mph 24.2 mph N/A   Overcast
10:55 PM 30.2 °F 18.5 °F 24.8 °F 80% 30.14 in 10.0 mi North 17.3 mph 23.0 mph N/A   Overcast
11:15 PM 30.2 °F 17.8 °F 24.8 °F 80% 30.14 in 10.0 mi NNE 19.6 mph - N/A   Overcast
11:33 PM 30.2 °F 19.3 °F 23.0 °F 75% 30.15 in 10.0 mi NNE 15.0 mph 21.9 mph N/A   Overcast
11:54 PM 28.4 °F 18.0 °F 21.2 °F 74% 30.15 in 10.0 mi NNE 12.7 mph - N/A   Mostly Cloudy